Time;durP1;ratioP1;P1;durP2;ratioP2;P2;SDS_P1;SDS_P2;PMS_P1;PMS_P2;Temp;Humidity;BMP_temperature;BMP_pressure;BME280_temperature;BME280_humidity;BME280_pressure;Samples;Min_cycle;Max_cycle;Signal;HPM_P1;HPM_P2
2024/01/19 00:01:00;;;;;;;11.02;5.63;;;;;;;22.29;36.68;99355.03;2099613;28;20207;-62
2024/01/19 00:02:02;;;;;;;8.60;5.22;;;;;;;22.22;36.43;99347.59;2090342;28;20111;-63
2024/01/19 00:03:03;;;;;;;8.77;5.15;;;;;;;22.14;36.08;99341.28;2082509;28;20033;-63
2024/01/19 00:04:05;;;;;;;9.45;5.43;;;;;;;22.07;36.08;99359.63;2074079;28;20038;-63
2024/01/19 00:05:10;;;;;;;8.55;5.10;;;;;;;21.97;36.02;99350.19;2076081;28;20034;-62
2024/01/19 00:06:12;;;;;;;9.07;4.95;;;;;;;21.89;35.87;99354.88;2090954;28;20147;-62
2024/01/19 00:07:14;;;;;;;9.63;4.40;;;;;;;21.82;35.67;99360.31;2090890;28;20033;-61
2024/01/19 00:08:16;;;;;;;6.93;4.45;;;;;;;21.72;35.52;99359.09;2090308;28;20033;-61
2024/01/19 00:09:18;;;;;;;7.80;4.82;;;;;;;21.65;35.62;99363.72;2099265;28;20764;-61
2024/01/19 00:10:20;;;;;;;8.30;4.78;;;;;;;21.57;35.43;99353.94;2099463;28;20039;-61
2024/01/19 00:11:21;;;;;;;10.40;4.88;;;;;;;21.48;35.57;99351.53;2098915;28;20787;-61
2024/01/19 00:12:25;;;;;;;9.27;5.00;;;;;;;21.41;35.52;99359.69;2082515;28;20140;-61
2024/01/19 00:13:27;;;;;;;7.50;4.43;;;;;;;21.34;35.36;99352.16;2074949;28;20037;-61
2024/01/19 00:14:28;;;;;;;8.02;4.40;;;;;;;21.26;35.19;99356.03;2090555;28;20962;-62
2024/01/19 00:15:30;;;;;;;8.52;4.82;;;;;;;21.20;35.35;99343.88;2098781;28;20080;-62
2024/01/19 00:16:32;;;;;;;5.93;4.30;;;;;;;21.11;35.31;99348.88;2090289;28;20032;-63
2024/01/19 00:17:33;;;;;;;8.15;4.53;;;;;;;21.05;35.40;99351.97;2082512;28;20836;-63
2024/01/19 00:18:35;;;;;;;6.88;4.28;;;;;;;20.98;35.22;99362.84;2081985;28;20050;-63
2024/01/19 00:19:37;;;;;;;8.43;4.28;;;;;;;20.93;35.30;99359.66;2074532;28;20971;-63
2024/01/19 00:20:39;;;;;;;7.80;4.00;;;;;;;20.88;35.34;99366.28;2082527;28;20022;-63
2024/01/19 00:21:46;;;;;;;6.20;3.90;;;;;;;20.80;35.41;99359.94;2099084;28;20025;-63
2024/01/19 00:22:48;;;;;;;7.15;4.20;;;;;;;20.75;35.24;99365.75;2099458;28;20044;-62
2024/01/19 00:23:50;;;;;;;9.48;4.57;;;;;;;20.70;35.33;99368.81;2098977;28;20853;-63
2024/01/19 00:24:51;;;;;;;7.38;4.25;;;;;;;20.66;35.32;99375.44;2090657;28;20017;-63
2024/01/19 00:25:53;;;;;;;6.30;3.90;;;;;;;20.61;35.11;99371.06;2090646;28;20104;-63
2024/01/19 00:26:55;;;;;;;7.47;3.63;;;;;;;20.55;35.14;99378.84;2098154;28;20047;-62
2024/01/19 00:27:57;;;;;;;5.13;3.70;;;;;;;20.52;35.23;99379.59;2098849;28;20881;-62
2024/01/19 00:28:58;;;;;;;8.63;3.75;;;;;;;20.47;35.20;99388.06;2082272;28;20022;-62
2024/01/19 00:29:59;;;;;;;8.27;4.03;;;;;;;20.43;35.23;99376.34;2082423;28;20029;-62
2024/01/19 00:31:01;;;;;;;7.40;3.60;;;;;;;20.38;34.97;99382.13;2082176;28;20049;-62
2024/01/19 00:32:05;;;;;;;6.18;4.03;;;;;;;20.35;35.37;99386.38;2086769;28;20030;-62
2024/01/19 00:33:07;;;;;;;5.70;3.50;;;;;;;20.31;35.27;99384.78;2090790;28;20844;-62
2024/01/19 00:34:09;;;;;;;6.68;3.40;;;;;;;20.27;35.29;99397.56;2090489;28;20030;-62
2024/01/19 00:35:11;;;;;;;6.07;3.50;;;;;;;20.24;35.23;99390.13;2082246;28;20034;-62
2024/01/19 00:36:13;;;;;;;6.28;3.00;;;;;;;20.19;35.29;99393.22;2082336;28;20033;-62
2024/01/19 00:37:17;;;;;;;4.90;3.33;;;;;;;20.14;35.59;99406.03;2090612;28;20144;-62
2024/01/19 00:38:19;;;;;;;6.70;3.70;;;;;;;20.09;35.25;99392.69;2082224;28;20034;-62
2024/01/19 00:39:20;;;;;;;7.00;3.40;;;;;;;20.07;35.37;99403.19;2082520;28;20038;-62
2024/01/19 00:40:22;;;;;;;4.63;2.92;;;;;;;20.04;35.28;99403.16;2074066;28;20130;-62
2024/01/19 00:41:26;;;;;;;5.70;3.42;;;;;;;20.00;35.19;99397.66;2066379;28;20039;-62
2024/01/19 00:42:27;;;;;;;5.72;3.13;;;;;;;19.97;35.24;99403.84;2082811;28;20177;-62
2024/01/19 00:43:29;;;;;;;6.25;3.40;;;;;;;19.96;35.29;99404.22;2090810;28;20062;-62
2024/01/19 00:44:30;;;;;;;4.15;2.88;;;;;;;19.93;35.24;99408.47;2098400;28;20870;-62
2024/01/19 00:45:32;;;;;;;5.28;2.95;;;;;;;19.90;35.27;99406.47;2107387;28;20928;-62
2024/01/19 00:46:34;;;;;;;5.72;2.83;;;;;;;19.86;35.26;99405.63;2082200;28;20026;-62
2024/01/19 00:47:36;;;;;;;4.97;2.90;;;;;;;19.83;35.36;99409.09;2066040;28;20051;-62
2024/01/19 00:48:37;;;;;;;4.43;2.80;;;;;;;19.81;35.30;99412.22;2081940;28;20042;-62
2024/01/19 00:49:40;;;;;;;8.57;3.03;;;;;;;19.80;35.46;99409.84;2090419;28;20068;-62
2024/01/19 00:50:42;;;;;;;6.07;3.10;;;;;;;19.78;35.32;99406.69;2082296;28;20038;-62
2024/01/19 00:51:44;;;;;;;5.85;2.78;;;;;;;19.76;35.44;99414.47;2082407;28;20046;-62
2024/01/19 00:52:46;;;;;;;7.25;2.85;;;;;;;19.74;35.37;99417.56;2090256;28;20037;-62
2024/01/19 00:53:47;;;;;;;5.10;3.10;;;;;;;19.73;35.21;99415.97;2098759;28;20174;-61
2024/01/19 00:54:49;;;;;;;4.63;2.78;;;;;;;19.70;35.33;99411.25;2098522;28;20021;-61
2024/01/19 00:55:51;;;;;;;6.97;3.45;;;;;;;19.67;35.17;99415.53;2090582;28;20796;-62
2024/01/19 00:56:54;;;;;;;4.68;2.50;;;;;;;19.65;35.21;99414.31;2098790;28;20029;-62
2024/01/19 00:57:56;;;;;;;4.30;2.47;;;;;;;19.62;35.21;99415.78;2090398;28;20143;-61
2024/01/19 00:58:58;;;;;;;3.50;2.40;;;;;;;19.61;35.33;99408.00;2082272;28;20029;-63
2024/01/19 01:00:00;;;;;;;6.55;2.90;;;;;;;19.58;35.33;99409.50;2090462;28;20094;-62
2024/01/19 01:01:02;;;;;;;5.85;2.90;;;;;;;19.56;35.18;99416.47;2098277;28;20037;-62
2024/01/19 01:02:04;;;;;;;5.40;2.50;;;;;;;19.53;35.32;99411.75;2082302;28;20033;-62
2024/01/19 01:03:05;;;;;;;5.63;2.80;;;;;;;19.50;35.29;99418.72;2082296;28;20041;-62
2024/01/19 01:04:07;;;;;;;4.22;2.70;;;;;;;19.48;35.41;99421.03;2082164;28;20880;-63
2024/01/19 01:05:09;;;;;;;5.03;2.83;;;;;;;19.47;35.39;99424.91;2081924;28;20812;-62
2024/01/19 01:06:11;;;;;;;4.50;2.63;;;;;;;19.44;35.41;99429.16;2090733;28;20128;-62
2024/01/19 01:07:12;;;;;;;5.95;2.42;;;;;;;19.43;35.50;99429.53;2098602;28;20060;-62
2024/01/19 01:08:14;;;;;;;5.68;2.67;;;;;;;19.42;35.38;99427.97;2082224;28;20042;-62
2024/01/19 01:09:16;;;;;;;5.13;2.33;;;;;;;19.39;35.51;99429.47;2081920;28;20144;-62
2024/01/19 01:10:18;;;;;;;4.38;2.50;;;;;;;19.38;35.49;99429.81;2098789;28;20140;-62
2024/01/19 01:11:20;;;;;;;5.35;2.70;;;;;;;19.37;35.50;99436.44;2098501;28;20023;-62
2024/01/19 01:12:21;;;;;;;5.82;2.50;;;;;;;19.35;35.35;99436.78;2089954;28;20037;-62
2024/01/19 01:13:23;;;;;;;4.47;2.20;;;;;;;19.33;35.50;99435.59;2073869;28;20030;-62
2024/01/19 01:14:24;;;;;;;3.75;2.30;;;;;;;19.32;35.45;99440.25;2082350;28;20880;-63
2024/01/19 01:15:26;;;;;;;4.70;2.50;;;;;;;19.32;35.36;99442.19;2090260;28;20820;-62
2024/01/19 01:16:29;;;;;;;4.07;2.42;;;;;;;19.30;35.51;99433.59;2098286;28;20033;-62
2024/01/19 01:17:31;;;;;;;3.83;2.50;;;;;;;19.28;35.50;99439.41;2106946;28;20098;-62
2024/01/19 01:18:33;;;;;;;4.55;2.30;;;;;;;19.28;35.29;99438.63;2090442;28;20249;-61
2024/01/19 01:19:35;;;;;;;4.78;2.25;;;;;;;19.27;35.25;99434.34;2090635;28;20826;-62
2024/01/19 01:20:37;;;;;;;4.63;2.30;;;;;;;19.26;35.42;99435.47;2098728;28;20883;-62
2024/01/19 01:21:38;;;;;;;4.60;2.40;;;;;;;19.25;35.48;99431.97;2098315;28;20895;-63
2024/01/19 01:22:41;;;;;;;4.35;2.22;;;;;;;19.22;35.36;99430.75;2098437;28;20032;-62
2024/01/19 01:23:43;;;;;;;5.43;2.22;;;;;;;19.21;35.10;99439.28;2089880;28;20029;-62
2024/01/19 01:24:45;;;;;;;4.55;2.20;;;;;;;19.20;35.39;99433.06;2082253;28;20886;-62
2024/01/19 01:25:46;;;;;;;3.53;2.10;;;;;;;19.18;35.38;99429.91;2090596;28;20033;-62
2024/01/19 01:26:48;;;;;;;5.68;2.40;;;;;;;19.18;35.29;99435.34;2082045;28;20030;-62
2024/01/19 01:27:49;;;;;;;5.72;2.30;;;;;;;19.17;35.44;99439.25;2082326;28;20041;-62
2024/01/19 01:28:52;;;;;;;5.65;2.20;;;;;;;19.16;35.48;99437.63;2098673;28;20040;-62
2024/01/19 01:29:57;;;;;;;5.10;2.15;;;;;;;19.15;35.33;99451.66;2090062;28;20123;-63
2024/01/19 01:30:59;;;;;;;3.47;2.03;;;;;;;19.13;35.33;99443.81;2074026;28;20896;-62
2024/01/19 01:32:03;;;;;;;3.90;2.17;;;;;;;19.12;35.44;99430.56;2082725;28;20034;-62
2024/01/19 01:33:06;;;;;;;4.45;2.10;;;;;;;19.12;35.31;99441.47;2090179;28;20026;-63
2024/01/19 01:34:08;;;;;;;3.22;2.00;;;;;;;19.10;35.33;99444.53;2082429;28;20038;-62
2024/01/19 01:35:10;;;;;;;4.63;2.05;;;;;;;19.09;35.46;99442.97;2090250;28;20041;-62
2024/01/19 01:36:12;;;;;;;3.97;2.40;;;;;;;19.08;35.46;99446.84;2098277;28;20029;-62
2024/01/19 01:37:15;;;;;;;4.68;2.20;;;;;;;19.07;35.55;99453.44;2090380;28;20038;-62
2024/01/19 01:38:17;;;;;;;3.17;1.90;;;;;;;19.06;35.38;99454.59;2089859;28;20021;-62
2024/01/19 01:39:21;;;;;;;5.00;2.10;;;;;;;19.05;35.42;99461.22;2098830;28;20028;-61
2024/01/19 01:40:24;;;;;;;6.55;2.03;;;;;;;19.04;35.29;99456.91;2098302;28;20029;-62
2024/01/19 01:41:25;;;;;;;6.63;2.22;;;;;;;19.02;35.37;99453.75;2081707;28;20058;-62
2024/01/19 01:42:27;;;;;;;4.90;2.17;;;;;;;18.99;35.36;99455.25;2065636;28;20773;-62
2024/01/19 01:43:31;;;;;;;4.78;2.00;;;;;;;19.00;35.35;99450.59;2082212;28;20069;-62
2024/01/19 01:44:33;;;;;;;7.47;2.15;;;;;;;19.00;35.59;99466.94;2090137;28;20884;-62
2024/01/19 01:45:36;;;;;;;4.22;1.88;;;;;;;18.98;35.32;99452.91;2098183;28;20029;-62
2024/01/19 01:46:38;;;;;;;7.30;1.92;;;;;;;18.97;35.38;99468.44;2097922;28;20029;-62
2024/01/19 01:47:40;;;;;;;4.03;1.88;;;;;;;18.95;35.29;99457.13;2090334;28;20037;-62
2024/01/19 01:48:41;;;;;;;2.85;1.80;;;;;;;18.95;35.25;99453.63;2081615;28;20042;-63
2024/01/19 01:49:43;;;;;;;4.40;1.90;;;;;;;18.92;35.38;99454.34;2090443;28;20728;-63
2024/01/19 01:50:47;;;;;;;4.88;2.08;;;;;;;18.88;35.38;99453.47;2089695;28;20038;-63
2024/01/19 01:51:49;;;;;;;4.82;2.00;;;;;;;18.90;35.22;99457.44;2090645;28;20128;-63
2024/01/19 01:52:53;;;;;;;3.63;2.10;;;;;;;18.89;35.53;99457.81;2098184;28;20037;-63
2024/01/19 01:53:56;;;;;;;3.60;1.73;;;;;;;18.88;35.61;99458.94;2098916;28;20037;-64
2024/01/19 01:54:58;;;;;;;4.43;1.85;;;;;;;18.86;35.58;99453.06;2089482;28;20022;-64
2024/01/19 01:56:00;;;;;;;4.32;1.88;;;;;;;18.85;35.54;99454.19;2082416;28;20065;-64
2024/01/19 01:57:03;;;;;;;2.95;2.10;;;;;;;18.84;35.61;99458.09;2089873;28;20859;-63
2024/01/19 01:58:09;;;;;;;3.15;1.73;;;;;;;18.83;35.68;99451.84;2098614;28;20032;-64
2024/01/19 01:59:11;;;;;;;7.50;1.90;;;;;;;18.83;35.54;99456.53;2098017;28;20021;-64
2024/01/19 02:00:14;;;;;;;4.15;1.77;;;;;;;18.82;35.55;99450.28;2090227;28;20021;-63
2024/01/19 02:01:15;;;;;;;2.85;1.73;;;;;;;18.82;35.60;99454.94;2081760;28;21059;-63
2024/01/19 02:02:17;;;;;;;3.03;1.73;;;;;;;18.81;35.65;99447.91;2073552;28;20022;-64
2024/01/19 02:03:21;;;;;;;3.08;1.98;;;;;;;18.81;35.53;99464.25;2065269;28;20073;-64
2024/01/19 02:04:25;;;;;;;4.00;1.83;;;;;;;18.80;35.55;99465.41;2084488;28;20061;-63
2024/01/19 02:05:27;;;;;;;5.43;2.15;;;;;;;18.79;35.43;99455.63;2105918;28;20050;-64
2024/01/19 02:06:29;;;;;;;5.13;1.80;;;;;;;18.79;35.31;99450.19;2099153;28;20106;-64
2024/01/19 02:07:31;;;;;;;3.97;1.58;;;;;;;18.78;35.51;99454.06;2098023;28;20025;-64
2024/01/19 02:08:35;;;;;;;5.60;1.80;;;;;;;18.77;35.46;99447.84;2098147;28;20036;-64
2024/01/19 02:09:38;;;;;;;3.15;1.85;;;;;;;18.77;35.55;99447.84;2098340;28;20033;-64
2024/01/19 02:10:41;;;;;;;3.03;1.83;;;;;;;18.77;35.56;99455.22;2089864;28;20036;-64
2024/01/19 02:11:42;;;;;;;3.28;1.60;;;;;;;18.74;35.49;99443.91;2073659;28;20034;-64
2024/01/19 02:12:45;;;;;;;2.78;1.67;;;;;;;18.75;35.41;99440.03;2081762;28;20038;-64
2024/01/19 02:13:47;;;;;;;4.10;1.80;;;;;;;18.74;35.33;99446.63;2065663;28;20753;-63
2024/01/19 02:14:48;;;;;;;4.30;2.05;;;;;;;18.73;35.25;99447.00;2073899;28;20033;-63
2024/01/19 02:15:50;;;;;;;3.83;1.65;;;;;;;18.72;35.29;99446.19;2073217;28;20038;-63
2024/01/19 02:16:51;;;;;;;2.80;1.50;;;;;;;18.72;35.35;99453.53;2065152;28;20766;-63
2024/01/19 02:17:54;;;;;;;4.65;2.05;;;;;;;18.71;35.43;99450.03;2089619;28;20202;-63
2024/01/19 02:18:55;;;;;;;3.05;1.75;;;;;;;18.71;35.28;99444.59;2098315;28;20875;-63
2024/01/19 02:19:58;;;;;;;4.53;1.90;;;;;;;18.69;35.30;99452.31;2097869;28;20041;-64
2024/01/19 02:21:00;;;;;;;11.85;1.88;;;;;;;18.69;35.29;99451.53;2098166;28;20036;-63
2024/01/19 02:22:03;;;;;;;3.75;1.80;;;;;;;18.67;35.21;99454.63;2106249;28;20066;-63
2024/01/19 02:23:06;;;;;;;7.00;1.77;;;;;;;18.68;35.14;99449.97;2089665;28;20092;-63
2024/01/19 02:24:18;;;;;;;5.70;1.60;;;;;;;18.68;35.38;99461.66;2082035;28;20874;-63
2024/01/19 02:25:19;;;;;;;5.65;2.13;;;;;;;18.67;35.45;99457.34;2082920;28;20074;-63
2024/01/19 02:26:21;;;;;;;3.60;1.50;;;;;;;18.66;35.47;99454.97;2089752;28;20028;-63
2024/01/19 02:27:23;;;;;;;2.35;1.40;;;;;;;18.66;35.70;99463.97;2098477;28;20021;-62
2024/01/19 02:28:25;;;;;;;3.13;1.55;;;;;;;18.65;35.71;99456.91;2089886;28;21056;-62
2024/01/19 02:29:26;;;;;;;4.50;1.65;;;;;;;18.65;35.64;99454.19;2089860;28;20041;-64
2024/01/19 02:30:29;;;;;;;2.90;1.60;;;;;;;18.67;35.79;99453.84;2097974;28;20029;-62
2024/01/19 02:31:32;;;;;;;4.93;1.85;;;;;;;18.67;35.72;99464.75;2098125;28;20150;-62
2024/01/19 02:32:34;;;;;;;5.25;1.90;;;;;;;18.63;35.58;99451.06;2081004;28;20081;-63
2024/01/19 02:33:38;;;;;;;5.55;1.83;;;;;;;18.67;35.69;99451.13;2082250;28;20073;-62
2024/01/19 02:34:40;;;;;;;3.90;1.50;;;;;;;18.66;35.50;99453.06;2089247;28;20033;-62
2024/01/19 02:35:41;;;;;;;5.80;1.85;;;;;;;18.65;35.58;99456.91;2081566;28;20828;-63
2024/01/19 02:36:46;;;;;;;2.80;1.50;;;;;;;18.65;35.56;99456.91;2073426;28;20758;-62
2024/01/19 02:37:48;;;;;;;5.97;2.00;;;;;;;18.65;35.67;99462.38;2090065;28;20873;-63
2024/01/19 02:38:49;;;;;;;5.75;1.92;;;;;;;18.64;35.55;99460.81;2081391;28;20096;-63
2024/01/19 02:39:50;;;;;;;3.30;1.65;;;;;;;18.64;35.50;99460.81;2065151;28;20165;-62
2024/01/19 02:40:54;;;;;;;5.75;2.05;;;;;;;18.64;35.56;99457.28;2073418;28;20932;-62
2024/01/19 02:41:56;;;;;;;2.67;1.50;;;;;;;18.63;35.47;99453.78;2089993;28;20789;-62
2024/01/19 02:42:58;;;;;;;3.20;1.48;;;;;;;18.63;35.41;99451.06;2089667;28;20030;-63
2024/01/19 02:43:59;;;;;;;7.72;2.90;;;;;;;18.62;35.42;99457.63;2081807;28;20789;-63
2024/01/19 02:45:02;;;;;;;3.08;1.23;;;;;;;18.62;35.36;99457.63;2089713;28;20952;-63
2024/01/19 02:46:07;;;;;;;3.05;1.50;;;;;;;18.61;35.57;99456.06;2089767;28;20033;-63
2024/01/19 02:47:08;;;;;;;3.30;1.40;;;;;;;18.62;35.57;99454.91;2073218;28;20038;-63
2024/01/19 02:48:12;;;;;;;6.72;1.48;;;;;;;18.61;35.39;99456.06;2065267;28;20170;-63
2024/01/19 02:49:14;;;;;;;4.72;1.45;;;;;;;18.61;35.42;99458.00;2073728;28;20073;-62
2024/01/19 02:50:16;;;;;;;4.07;1.65;;;;;;;18.61;35.57;99461.53;2091042;28;20895;-62
2024/01/19 02:51:18;;;;;;;5.35;2.08;;;;;;;18.60;35.54;99459.13;2090576;28;20050;-63
2024/01/19 02:52:19;;;;;;;4.97;1.40;;;;;;;18.60;35.56;99454.50;2083075;28;20129;-62
2024/01/19 02:53:20;;;;;;;4.25;1.75;;;;;;;18.59;35.33;99449.41;2091131;28;20935;-63
2024/01/19 02:54:21;;;;;;;3.33;1.50;;;;;;;18.59;35.54;99452.91;2083136;28;20049;-63
2024/01/19 02:55:23;;;;;;;2.40;1.40;;;;;;;18.58;35.38;99451.34;2082959;28;20042;-63
2024/01/19 02:56:25;;;;;;;3.58;1.60;;;;;;;18.58;35.56;99456.00;2091457;28;21308;-63
2024/01/19 02:57:26;;;;;;;3.20;1.50;;;;;;;18.56;35.48;99458.28;2082605;28;20884;-63
2024/01/19 02:58:29;;;;;;;5.32;1.60;;;;;;;18.56;35.57;99458.28;2083284;28;20140;-63
2024/01/19 02:59:31;;;;;;;3.78;1.50;;;;;;;18.58;35.51;99459.50;2091276;28;20026;-62
2024/01/19 03:00:33;;;;;;;5.18;1.58;;;;;;;18.57;35.43;99459.84;2091172;28;20223;-62
2024/01/19 03:01:35;;;;;;;4.55;1.42;;;;;;;18.56;35.41;99461.78;2082658;28;20044;-62
2024/01/19 03:02:37;;;;;;;5.30;1.75;;;;;;;18.56;35.40;99458.28;2066531;28;20039;-62
2024/01/19 03:03:40;;;;;;;4.97;1.80;;;;;;;18.55;35.47;99454.78;2082749;28;20038;-62
2024/01/19 03:04:41;;;;;;;2.58;1.20;;;;;;;18.54;35.37;99461.38;2075512;28;20028;-63
2024/01/19 03:05:46;;;;;;;3.88;1.48;;;;;;;18.55;35.32;99467.63;2075147;28;20107;-63
2024/01/19 03:06:48;;;;;;;2.53;1.10;;;;;;;18.53;35.30;99462.50;2091009;28;20122;-62
2024/01/19 03:07:51;;;;;;;2.95;1.27;;;;;;;18.51;35.46;99457.44;2091189;28;20136;-63
2024/01/19 03:08:52;;;;;;;4.63;1.60;;;;;;;18.51;35.29;99462.88;2074714;28;20044;-63
2024/01/19 03:09:54;;;;;;;2.75;1.30;;;;;;;18.52;35.29;99463.66;2083236;28;20089;-63
2024/01/19 03:10:56;;;;;;;2.60;1.40;;;;;;;18.51;35.31;99457.44;2091442;28;20037;-62
2024/01/19 03:11:59;;;;;;;3.00;1.42;;;;;;;18.50;35.40;99464.00;2090990;28;21010;-63
2024/01/19 03:13:01;;;;;;;2.67;1.42;;;;;;;18.50;35.16;99468.66;2091348;28;20099;-63
2024/01/19 03:14:06;;;;;;;3.65;1.33;;;;;;;18.50;35.10;99460.50;2091004;28;20025;-63
2024/01/19 03:15:09;;;;;;;4.03;1.38;;;;;;;18.49;35.17;99465.16;2090998;28;20029;-63
2024/01/19 03:16:16;;;;;;;3.25;1.27;;;;;;;18.48;35.15;99465.53;2091093;28;20878;-64
2024/01/19 03:17:19;;;;;;;3.83;1.42;;;;;;;18.48;35.15;99462.81;2074927;28;20143;-64
2024/01/19 03:18:20;;;;;;;3.53;1.20;;;;;;;18.47;35.16;99455.78;2091583;28;20998;-64
2024/01/19 03:19:23;;;;;;;3.17;1.35;;;;;;;18.46;35.06;99465.09;2107450;28;20036;-64
2024/01/19 03:20:25;;;;;;;3.13;1.48;;;;;;;18.46;35.21;99462.38;2099419;28;20040;-64
2024/01/19 03:21:27;;;;;;;4.65;1.33;;;;;;;18.45;35.09;99466.25;2082236;28;20042;-64
2024/01/19 03:22:29;;;;;;;2.38;1.10;;;;;;;18.42;35.08;99461.53;2082922;28;20125;-64
2024/01/19 03:23:30;;;;;;;3.13;1.27;;;;;;;18.43;35.41;99465.81;2082284;28;20042;-64
2024/01/19 03:24:32;;;;;;;3.33;1.25;;;;;;;18.42;35.11;99464.25;2074873;28;20029;-64
2024/01/19 03:25:34;;;;;;;3.20;1.27;;;;;;;18.41;34.92;99468.91;2074693;28;20206;-64
2024/01/19 03:26:35;;;;;;;4.55;1.30;;;;;;;18.41;35.48;99468.09;2082987;28;20048;-64
2024/01/19 03:27:37;;;;;;;2.50;1.50;;;;;;;18.41;35.21;99468.09;2082564;28;20046;-64
2024/01/19 03:28:38;;;;;;;2.42;1.20;;;;;;;18.41;35.40;99462.66;2066693;28;20033;-64
2024/01/19 03:29:40;;;;;;;3.83;1.50;;;;;;;18.39;35.28;99464.97;2075102;28;20034;-64
2024/01/19 03:30:42;;;;;;;3.55;1.17;;;;;;;18.41;35.26;99459.94;2091079;28;20029;-63
2024/01/19 03:31:43;;;;;;;3.03;1.08;;;;;;;18.41;35.32;99462.66;2092822;28;20899;-63
2024/01/19 03:32:46;;;;;;;6.22;1.50;;;;;;;18.41;35.26;99462.66;2091255;28;20037;-63
2024/01/19 03:33:47;;;;;;;2.45;1.13;;;;;;;18.41;35.29;99462.66;2099277;28;20803;-63
2024/01/19 03:34:49;;;;;;;4.57;1.30;;;;;;;18.41;35.15;99462.66;2099356;28;20060;-63
2024/01/19 03:35:51;;;;;;;5.00;1.25;;;;;;;18.40;35.39;99461.88;2091035;28;20042;-63
2024/01/19 03:36:53;;;;;;;2.65;1.15;;;;;;;18.41;35.30;99466.19;2082976;28;20050;-63
2024/01/19 03:37:55;;;;;;;3.83;1.45;;;;;;;18.42;35.41;99467.75;2074539;28;20035;-63
2024/01/19 03:38:56;;;;;;;3.60;1.20;;;;;;;18.42;35.29;99465.03;2074590;28;20104;-63
2024/01/19 03:39:58;;;;;;;3.42;1.20;;;;;;;18.42;35.37;99458.81;2082553;28;20022;-63
2024/01/19 03:41:00;;;;;;;4.20;1.30;;;;;;;18.43;35.34;99471.25;2099438;28;20811;-63
2024/01/19 03:42:02;;;;;;;4.70;1.60;;;;;;;18.42;35.38;99466.97;2107748;28;20851;-62
2024/01/19 03:43:03;;;;;;;5.53;1.40;;;;;;;18.41;35.21;99468.09;2082625;28;20860;-63
2024/01/19 03:44:05;;;;;;;4.75;1.40;;;;;;;18.42;35.17;99473.19;2066084;28;20035;-63
2024/01/19 03:45:08;;;;;;;3.75;1.13;;;;;;;18.43;35.25;99476.69;2083014;28;20044;-63
2024/01/19 03:46:09;;;;;;;4.68;1.42;;;;;;;18.43;35.36;99476.69;2082877;28;20037;-63
2024/01/19 03:47:12;;;;;;;3.72;1.30;;;;;;;18.43;35.31;99490.31;2074897;28;20039;-62
2024/01/19 03:48:14;;;;;;;3.13;1.23;;;;;;;18.42;35.25;99480.56;2074603;28;20051;-62
2024/01/19 03:49:16;;;;;;;3.03;1.20;;;;;;;18.42;35.36;99488.75;2082975;28;20149;-63
2024/01/19 03:50:18;;;;;;;3.42;1.65;;;;;;;18.42;35.27;99486.03;2082528;28;20169;-63
2024/01/19 03:51:20;;;;;;;3.83;1.55;;;;;;;18.43;35.38;99484.88;2066754;28;20166;-63
2024/01/19 03:52:21;;;;;;;4.95;1.35;;;;;;;18.43;35.51;99487.59;2066186;28;20029;-63
2024/01/19 03:53:22;;;;;;;3.55;1.50;;;;;;;18.44;35.41;99481.78;2082889;28;20046;-63
2024/01/19 03:54:24;;;;;;;3.97;1.45;;;;;;;18.44;35.32;99489.16;2090763;28;20017;-63
2024/01/19 03:55:25;;;;;;;4.00;1.20;;;;;;;18.44;35.33;99486.44;2090916;28;20038;-63
2024/01/19 03:56:27;;;;;;;3.45;1.10;;;;;;;18.43;35.28;99485.66;2090620;28;20037;-63
2024/01/19 03:57:29;;;;;;;1.88;0.90;;;;;;;18.43;35.25;99488.38;2066355;28;20962;-63
2024/01/19 03:58:31;;;;;;;3.65;1.30;;;;;;;18.44;35.39;99489.16;2074123;28;20152;-63
2024/01/19 03:59:32;;;;;;;6.18;1.42;;;;;;;18.44;35.27;99486.44;2091135;28;20022;-63
2024/01/19 04:00:33;;;;;;;2.88;1.45;;;;;;;18.43;35.36;99488.38;2082266;28;20030;-63
2024/01/19 04:01:35;;;;;;;3.75;1.85;;;;;;;18.43;35.27;99488.38;2082146;28;20944;-63
2024/01/19 04:02:37;;;;;;;4.03;1.50;;;;;;;18.43;35.00;99491.09;2098964;28;20098;-64
2024/01/19 04:03:38;;;;;;;3.05;1.20;;;;;;;18.43;35.13;99491.09;2090932;28;20045;-63
2024/01/19 04:04:40;;;;;;;3.20;1.27;;;;;;;18.44;35.32;99494.59;2090316;28;20990;-64
2024/01/19 04:05:41;;;;;;;4.28;1.65;;;;;;;18.42;35.02;99491.47;2082654;28;20046;-64
2024/01/19 04:06:42;;;;;;;4.03;1.30;;;;;;;18.43;34.99;99490.31;2082518;28;20037;-64
2024/01/19 04:07:44;;;;;;;5.07;1.85;;;;;;;18.42;35.19;99497.69;2090618;28;20044;-64
2024/01/19 04:08:45;;;;;;;6.93;1.52;;;;;;;18.40;35.10;99488.28;2090401;28;20045;-63
2024/01/19 04:09:47;;;;;;;2.22;1.10;;;;;;;18.42;35.25;99492.25;2091127;28;20033;-64
2024/01/19 04:10:48;;;;;;;6.30;1.20;;;;;;;18.44;35.11;99500.03;2074278;28;20022;-63
2024/01/19 04:11:49;;;;;;;7.05;1.33;;;;;;;18.44;35.20;99494.59;2058442;28;20069;-63
2024/01/19 04:12:52;;;;;;;2.55;1.25;;;;;;;18.43;35.14;99493.81;2082593;28;20030;-63
2024/01/19 04:13:54;;;;;;;4.13;1.23;;;;;;;18.43;35.13;99493.03;2098703;28;20067;-61
2024/01/19 04:14:56;;;;;;;4.45;1.42;;;;;;;18.44;35.21;99489.16;2082448;28;20073;-62
2024/01/19 04:15:57;;;;;;;3.45;1.40;;;;;;;18.43;35.22;99499.25;2090910;28;20061;-62
2024/01/19 04:16:59;;;;;;;5.80;1.50;;;;;;;18.44;35.10;99500.03;2097655;28;20969;-62
2024/01/19 04:18:01;;;;;;;4.15;1.35;;;;;;;18.44;35.21;99495.41;2090719;28;20092;-62
2024/01/19 04:19:05;;;;;;;4.20;1.30;;;;;;;18.43;35.16;99498.47;2098698;28;20036;-62
2024/01/19 04:20:09;;;;;;;4.45;1.40;;;;;;;18.45;35.16;99498.91;2099108;28;20025;-62
2024/01/19 04:21:10;;;;;;;2.63;1.08;;;;;;;18.45;35.31;99496.19;2082550;28;20156;-63
2024/01/19 04:22:12;;;;;;;3.78;1.30;;;;;;;18.44;35.39;99497.31;2082653;28;20042;-63
2024/01/19 04:23:16;;;;;;;3.05;1.30;;;;;;;18.45;35.24;99498.91;2098606;28;20880;-63
2024/01/19 04:24:17;;;;;;;3.20;1.23;;;;;;;18.44;35.30;99497.31;2098926;28;20131;-62
2024/01/19 04:25:22;;;;;;;3.08;1.20;;;;;;;18.45;35.18;99498.91;2082561;28;20865;-62
2024/01/19 04:26:24;;;;;;;2.63;1.48;;;;;;;18.45;35.24;99501.63;2091652;28;20037;-63
2024/01/19 04:27:26;;;;;;;4.47;1.60;;;;;;;18.44;35.33;99503.56;2107149;28;20131;-63
2024/01/19 04:28:27;;;;;;;3.92;1.30;;;;;;;18.44;35.24;99492.69;2098933;28;20037;-63
2024/01/19 04:29:29;;;;;;;4.63;1.30;;;;;;;18.45;35.19;99496.19;2099181;28;20139;-63
2024/01/19 04:30:32;;;;;;;2.97;1.13;;;;;;;18.44;35.10;99498.13;2098988;28;20816;-63
2024/01/19 04:31:34;;;;;;;4.22;1.75;;;;;;;18.44;35.19;99489.16;2090164;28;20180;-63
2024/01/19 04:32:36;;;;;;;4.40;1.20;;;;;;;18.44;35.21;99500.84;2083086;28;20026;-63
2024/01/19 04:33:37;;;;;;;4.97;1.52;;;;;;;18.44;35.09;99503.56;2090671;28;20028;-62
2024/01/19 04:34:39;;;;;;;4.00;1.40;;;;;;;18.44;35.21;99494.59;2099096;28;20017;-63
2024/01/19 04:35:41;;;;;;;3.58;1.40;;;;;;;18.44;34.99;99500.84;2090447;28;20856;-63
2024/01/19 04:36:45;;;;;;;4.00;1.48;;;;;;;18.44;35.17;99500.03;2090574;28;20025;-63
2024/01/19 04:37:47;;;;;;;3.33;1.38;;;;;;;18.45;35.18;99496.19;2090501;28;20037;-62
2024/01/19 04:38:51;;;;;;;5.03;1.50;;;;;;;18.43;34.97;99498.47;2090654;28;20025;-63
2024/01/19 04:39:53;;;;;;;4.13;1.83;;;;;;;18.43;34.84;99499.25;2098834;28;20021;-63
2024/01/19 04:40:54;;;;;;;3.45;1.42;;;;;;;18.41;35.03;99495.31;2082231;28;20026;-63
2024/01/19 04:41:56;;;;;;;4.03;1.30;;;;;;;18.42;34.98;99505.06;2082385;28;20033;-63
2024/01/19 04:42:58;;;;;;;3.58;1.38;;;;;;;18.41;34.81;99498.03;2099005;28;20025;-63
2024/01/19 04:43:59;;;;;;;3.15;1.20;;;;;;;18.40;34.78;99507.34;2098884;28;20814;-62
2024/01/19 04:45:01;;;;;;;4.00;1.10;;;;;;;18.40;34.95;99504.63;2090380;28;20033;-63
2024/01/19 04:46:02;;;;;;;3.35;1.30;;;;;;;18.37;34.97;99495.22;2074264;28;20029;-63
2024/01/19 04:47:05;;;;;;;2.83;1.30;;;;;;;18.38;35.05;99501.47;2065907;28;20197;-62
2024/01/19 04:48:09;;;;;;;5.50;1.40;;;;;;;18.38;34.99;99494.09;2082758;28;20922;-62
2024/01/19 04:49:11;;;;;;;3.40;1.38;;;;;;;18.37;35.01;99483.56;2090826;28;20025;-62
2024/01/19 04:50:15;;;;;;;3.33;1.33;;;;;;;18.38;34.89;99490.56;2074108;28;20137;-62
2024/01/19 04:51:17;;;;;;;2.58;1.33;;;;;;;18.37;35.09;99491.72;2075403;28;20073;-63
2024/01/19 04:52:19;;;;;;;3.38;1.10;;;;;;;18.36;34.93;99484.72;2090377;28;20098;-62
2024/01/19 04:53:20;;;;;;;4.40;1.23;;;;;;;18.35;35.01;99481.22;2082062;28;20038;-62